Time;durP1;ratioP1;P1;durP2;ratioP2;P2;SDS_P1;SDS_P2;PMS_P1;PMS_P2;Temp;Humidity;BMP_temperature;BMP_pressure;BME280_temperature;BME280_humidity;BME280_pressure;Samples;Min_cycle;Max_cycle;Signal;HPM_P1;HPM_P2
2022/10/29 00:01:50;;;;;;;14.15;4.43;;;13.40;99.90;;;;;;4882683;29;20048;-59
2022/10/29 00:04:16;;;;;;;19.55;5.68;;;13.40;99.90;;;;;;4889517;29;20097;-60
2022/10/29 00:06:41;;;;;;;15.85;5.70;;;13.40;99.90;;;;;;4921396;28;20054;-59
2022/10/29 00:09:09;;;;;;;22.90;6.18;;;13.40;99.90;;;;;;4887621;29;20064;-58
2022/10/29 00:11:36;;;;;;;15.45;5.47;;;13.40;99.90;;;;;;4887758;29;20080;-59
2022/10/29 00:14:02;;;;;;;21.63;6.70;;;13.40;99.90;;;;;;4893779;29;20520;-60
2022/10/29 00:16:33;;;;;;;22.30;5.85;;;13.40;99.90;;;;;;4892335;29;20044;-60
2022/10/29 00:18:59;;;;;;;18.23;5.93;;;13.30;99.90;;;;;;4885974;29;20040;-60
2022/10/29 00:21:26;;;;;;;20.17;6.95;;;13.30;99.90;;;;;;4882600;29;20061;-61
2022/10/29 00:23:52;;;;;;;27.55;7.20;;;13.30;99.90;;;;;;4893030;29;20519;-59
2022/10/29 00:26:20;;;;;;;26.58;7.15;;;13.30;99.90;;;;;;4906449;29;20054;-60
2022/10/29 00:28:46;;;;;;;31.13;6.40;;;13.30;99.90;;;;;;4875282;29;20052;-60
2022/10/29 00:31:14;;;;;;;30.25;7.35;;;13.30;99.90;;;;;;4893951;29;20047;-59
2022/10/29 00:33:40;;;;;;;27.85;7.45;;;13.20;99.90;;;;;;4885166;29;20962;-60
2022/10/29 00:36:13;;;;;;;30.45;7.47;;;13.20;99.90;;;;;;4895621;29;20048;-59
2022/10/29 00:38:39;;;;;;;23.42;8.07;;;13.20;99.90;;;;;;4887133;29;20063;-61
2022/10/29 00:41:07;;;;;;;35.28;9.70;;;13.20;99.90;;;;;;4882576;29;20054;-59
2022/10/29 00:43:35;;;;;;;30.05;9.25;;;13.20;99.90;;;;;;4880075;29;20146;-60
2022/10/29 00:46:27;;;;;;;36.25;10.20;;;13.20;99.90;;;;;;4892783;29;20395;-59
2022/10/29 00:48:54;;;;;;;32.60;10.18;;;13.20;99.90;;;;;;4892947;29;20091;-59
2022/10/29 00:51:21;;;;;;;35.42;9.98;;;13.20;99.90;;;;;;4921074;28;20586;-58
2022/10/29 00:53:52;;;;;;;28.42;9.65;;;13.20;99.90;;;;;;4888655;29;20538;-60
2022/10/29 00:56:18;;;;;;;41.05;11.18;;;13.20;99.90;;;;;;4890793;29;20111;-60
2022/10/29 00:58:44;;;;;;;35.40;11.25;;;13.20;99.90;;;;;;4894458;29;20525;-59
2022/10/29 01:01:10;;;;;;;32.63;11.95;;;13.20;99.90;;;;;;4890597;29;20143;-60
2022/10/29 01:03:37;;;;;;;33.30;11.93;;;13.20;99.90;;;;;;4920986;28;20048;-59
2022/10/29 01:06:04;;;;;;;35.15;12.07;;;13.20;99.90;;;;;;4916160;28;20113;-60
2022/10/29 01:08:29;;;;;;;34.03;12.25;;;13.20;99.90;;;;;;4884605;29;20108;-59
2022/10/29 01:11:18;;;;;;;38.33;11.93;;;13.20;99.90;;;;;;4914348;28;20056;-60
2022/10/29 01:14:21;;;;;;;37.90;13.43;;;13.20;99.90;;;;;;4893493;29;20048;-60
2022/10/29 01:17:19;;;;;;;39.25;13.38;;;13.20;99.90;;;;;;4892908;29;20052;-60
2022/10/29 01:20:08;;;;;;;35.30;10.70;;;13.20;99.90;;;;;;4890279;29;20044;-59
2022/10/29 01:22:51;;;;;;;39.67;9.90;;;13.20;99.90;;;;;;4894930;29;20147;-60
2022/10/29 01:26:05;;;;;;;45.05;10.30;;;13.10;99.90;;;;;;4911010;29;20052;-61
2022/10/29 01:28:54;;;;;;;45.40;11.32;;;13.10;99.90;;;;;;4895844;29;20052;-60
2022/10/29 01:31:37;;;;;;;41.40;12.90;;;13.00;99.90;;;;;;4894107;29;20059;-60
2022/10/29 01:34:24;;;;;;;145.98;16.98;;;13.00;99.90;;;;;;4910083;29;20040;-59
2022/10/29 01:36:57;;;;;;;32.80;14.75;;;13.00;99.90;;;;;;4893923;29;20674;-61
2022/10/29 01:40:10;;;;;;;63.22;16.30;;;13.10;99.90;;;;;;4918111;28;20048;-60
2022/10/29 01:43:04;;;;;;;52.85;15.27;;;13.10;99.90;;;;;;4897648;29;20048;-59
2022/10/29 01:45:53;;;;;;;40.05;14.68;;;13.10;99.90;;;;;;4886339;29;20052;-58
2022/10/29 01:48:26;;;;;;;36.40;13.15;;;13.20;99.90;;;;;;4893780;29;20126;-60
2022/10/29 01:50:56;;;;;;;81.97;14.20;;;13.10;99.90;;;;;;4893713;29;20087;-60
2022/10/29 01:53:22;;;;;;;101.15;13.43;;;13.10;99.90;;;;;;4895179;29;20107;-60
2022/10/29 01:55:48;;;;;;;81.35;14.23;;;13.10;99.90;;;;;;4882715;29;20131;-61
2022/10/29 01:58:14;;;;;;;22.13;11.02;;;13.20;99.90;;;;;;4923123;29;20442;-59
2022/10/29 02:01:06;;;;;;;16.50;10.32;;;13.10;99.90;;;;;;4904686;29;20171;-59
2022/10/29 02:03:36;;;;;;;34.10;10.15;;;13.10;99.90;;;;;;4926205;28;20063;-60
2022/10/29 02:06:19;;;;;;;44.72;11.98;;;13.10;99.90;;;;;;4892865;29;20048;-60
2022/10/29 02:08:48;;;;;;;42.22;12.32;;;13.10;99.90;;;;;;4893187;29;20048;-60
2022/10/29 02:11:25;;;;;;;32.40;13.50;;;13.10;99.90;;;;;;4884356;29;20052;-60
2022/10/29 02:14:05;;;;;;;29.50;11.43;;;13.10;99.90;;;;;;4895271;29;20127;-61
2022/10/29 02:16:32;;;;;;;58.47;10.65;;;13.10;99.90;;;;;;4886904;29;20041;-60
2022/10/29 02:18:59;;;;;;;59.28;11.38;;;13.10;99.90;;;;;;4890166;29;20168;-59
2022/10/29 02:21:25;;;;;;;16.10;9.13;;;13.10;99.90;;;;;;4893940;29;20479;-60
2022/10/29 02:23:51;;;;;;;53.60;10.77;;;13.00;99.90;;;;;;4893465;29;20063;-59
2022/10/29 02:26:17;;;;;;;69.95;11.20;;;13.10;99.90;;;;;;4888561;29;20067;-60
2022/10/29 02:28:43;;;;;;;50.80;9.38;;;13.00;99.90;;;;;;4884560;29;20040;-59
2022/10/29 02:31:09;;;;;;;96.32;9.75;;;13.00;99.90;;;;;;4892215;29;20080;-59
2022/10/29 02:33:35;;;;;;;43.35;7.90;;;13.00;99.90;;;;;;4892988;29;20048;-60
2022/10/29 02:36:01;;;;;;;42.13;8.10;;;13.00;99.90;;;;;;4890866;29;20099;-60
2022/10/29 02:38:27;;;;;;;77.07;9.45;;;13.00;99.90;;;;;;4884151;29;20044;-61
2022/10/29 02:40:52;;;;;;;81.13;9.68;;;13.00;99.90;;;;;;4895768;29;20510;-60
2022/10/29 02:43:18;;;;;;;24.10;7.68;;;13.00;99.90;;;;;;4892015;29;20048;-59
2022/10/29 02:45:44;;;;;;;20.23;7.10;;;12.90;99.90;;;;;;4891238;29;20048;-59
2022/10/29 02:48:10;;;;;;;32.15;7.18;;;12.90;99.90;;;;;;4888303;29;20132;-60
2022/10/29 02:50:35;;;;;;;99.18;9.48;;;12.90;99.90;;;;;;4873512;29;20059;-59
2022/10/29 02:53:01;;;;;;;40.13;7.45;;;12.90;99.90;;;;;;4887818;29;20136;-61
2022/10/29 02:55:27;;;;;;;24.13;7.85;;;12.90;99.90;;;;;;4900550;29;20041;-58
2022/10/29 02:57:53;;;;;;;85.20;8.70;;;12.80;99.90;;;;;;4898846;29;20059;-61
2022/10/29 03:00:19;;;;;;;71.40;8.82;;;12.90;99.90;;;;;;4928439;29;20060;-58
2022/10/29 03:02:44;;;;;;;106.25;9.57;;;12.90;99.90;;;;;;4898315;29;20103;-60
2022/10/29 03:05:10;;;;;;;136.30;10.85;;;12.90;99.90;;;;;;4896817;29;20043;-60
2022/10/29 03:07:37;;;;;;;113.20;9.75;;;12.90;99.90;;;;;;4886888;29;21553;-59
2022/10/29 03:10:04;;;;;;;122.95;9.32;;;12.80;99.90;;;;;;4887246;29;20459;-61
2022/10/29 03:12:30;;;;;;;80.18;8.50;;;12.90;99.90;;;;;;4891805;29;20052;-59
2022/10/29 03:14:56;;;;;;;37.75;7.07;;;12.80;99.90;;;;;;4916847;28;21665;-60
2022/10/29 03:17:22;;;;;;;46.13;7.05;;;12.90;99.90;;;;;;4884835;29;20066;-59
2022/10/29 03:19:48;;;;;;;15.95;6.88;;;12.90;99.90;;;;;;4895489;29;20052;-60
2022/10/29 03:22:14;;;;;;;54.85;7.57;;;12.90;99.90;;;;;;4891450;29;20495;-60
2022/10/29 03:24:40;;;;;;;15.77;6.95;;;12.80;99.90;;;;;;4894106;29;20081;-60
2022/10/29 03:27:05;;;;;;;29.33;7.50;;;12.90;99.90;;;;;;4894240;29;20074;-59
2022/10/29 03:29:31;;;;;;;32.42;7.20;;;12.90;99.90;;;;;;4916044;28;20052;-59
2022/10/29 03:31:57;;;;;;;55.70;7.50;;;12.90;99.90;;;;;;4902184;29;20048;-60
2022/10/29 03:34:23;;;;;;;93.47;8.55;;;12.90;99.90;;;;;;4910944;29;20127;-59
2022/10/29 03:36:49;;;;;;;25.10;7.47;;;12.90;99.90;;;;;;4894754;29;20052;-59
2022/10/29 03:39:15;;;;;;;65.45;7.53;;;12.80;99.90;;;;;;4894714;29;20052;-59
2022/10/29 03:41:40;;;;;;;38.15;6.35;;;12.80;99.90;;;;;;4893538;29;20044;-60
2022/10/29 03:44:06;;;;;;;31.25;6.25;;;12.80;99.90;;;;;;4895252;29;20055;-60
2022/10/29 03:46:33;;;;;;;15.27;6.38;;;12.80;99.90;;;;;;4888972;29;20044;-58
2022/10/29 03:48:58;;;;;;;57.35;6.93;;;12.70;99.90;;;;;;4895200;29;20132;-61
2022/10/29 03:51:24;;;;;;;53.80;6.95;;;12.70;99.90;;;;;;4892155;29;20057;-60
2022/10/29 03:53:50;;;;;;;89.78;7.50;;;12.70;99.90;;;;;;4884124;29;21129;-60
2022/10/29 03:56:16;;;;;;;47.97;6.82;;;12.70;99.90;;;;;;4890781;29;20050;-60
2022/10/29 03:58:42;;;;;;;134.93;8.35;;;12.70;99.90;;;;;;4891356;29;20062;-60
2022/10/29 04:01:09;;;;;;;88.65;7.85;;;12.60;99.90;;;;;;4907742;29;20051;-59
2022/10/29 04:03:37;;;;;;;32.70;6.25;;;12.70;99.90;;;;;;4893229;29;20112;-60
2022/10/29 04:06:14;;;;;;;56.45;6.78;;;12.60;99.90;;;;;;4895443;29;20049;-59
2022/10/29 04:08:40;;;;;;;63.35;7.30;;;12.60;99.90;;;;;;4891306;29;20067;-60
2022/10/29 04:11:07;;;;;;;70.18;7.03;;;12.60;99.90;;;;;;4896203;29;20052;-60
2022/10/29 04:13:34;;;;;;;29.50;5.57;;;12.60;99.90;;;;;;4904579;29;20168;-60
2022/10/29 04:15:59;;;;;;;84.20;6.97;;;12.60;99.90;;;;;;4883481;29;20136;-60
2022/10/29 04:18:25;;;;;;;22.33;5.50;;;12.60;99.90;;;;;;4895861;29;20057;-61
2022/10/29 04:20:52;;;;;;;11.10;6.22;;;12.60;99.90;;;;;;4895411;29;20048;-60
2022/10/29 04:23:18;;;;;;;99.95;9.05;;;12.50;99.90;;;;;;4891328;29;20483;-60
2022/10/29 04:25:57;;;;;;;69.38;7.70;;;12.50;99.90;;;;;;4918027;29;20103;-60
2022/10/29 04:28:23;;;;;;;21.17;6.70;;;12.50;99.90;;;;;;4885352;29;20056;-59
2022/10/29 04:30:49;;;;;;;39.40;6.32;;;12.50;99.90;;;;;;4889031;29;20091;-60
2022/10/29 04:33:15;;;;;;;66.63;7.72;;;12.50;99.90;;;;;;4891319;29;20074;-59
2022/10/29 04:35:41;;;;;;;95.07;7.80;;;12.50;99.90;;;;;;4887201;29;20048;-60
2022/10/29 04:38:08;;;;;;;28.85;6.18;;;12.50;99.90;;;;;;4890275;29;20159;-59
2022/10/29 04:40:34;;;;;;;45.65;7.05;;;12.50;99.90;;;;;;4892129;29;20056;-60
2022/10/29 04:42:59;;;;;;;14.10;5.90;;;12.50;99.90;;;;;;4883654;29;20144;-59
2022/10/29 04:45:25;;;;;;;61.30;7.38;;;12.50;99.90;;;;;;4897074;29;20136;-59
2022/10/29 04:48:02;;;;;;;23.80;6.10;;;12.50;99.90;;;;;;4887442;29;20127;-59
2022/10/29 04:50:29;;;;;;;20.20;6.60;;;12.50;99.90;;;;;;4895748;29;20052;-60
2022/10/29 04:52:59;;;;;;;34.75;7.43;;;12.50;99.90;;;;;;4927296;29;20123;-60
2022/10/29 04:55:25;;;;;;;32.72;7.47;;;12.50;99.90;;;;;;4884838;29;20056;-60
2022/10/29 04:57:51;;;;;;;56.28;8.07;;;12.50;99.90;;;;;;4920796;28;20119;-60
2022/10/29 05:00:17;;;;;;;62.40;7.30;;;12.50;99.90;;;;;;4892968;29;20056;-60
2022/10/29 05:02:48;;;;;;;32.92;6.50;;;12.50;99.90;;;;;;4893330;29;20079;-59
2022/10/29 05:05:15;;;;;;;118.72;8.85;;;12.50;99.90;;;;;;4894329;29;20056;-58
2022/10/29 05:07:40;;;;;;;93.93;8.02;;;12.50;99.90;;;;;;4907056;29;20035;-60
2022/10/29 05:10:07;;;;;;;85.38;7.90;;;12.50;99.90;;;;;;4901378;29;22257;-59
2022/10/29 05:12:32;;;;;;;84.32;8.32;;;12.50;99.90;;;;;;4890869;29;20059;-60
2022/10/29 05:14:58;;;;;;;63.75;7.38;;;12.50;99.90;;;;;;4891761;29;20040;-59
2022/10/29 05:17:24;;;;;;;81.25;7.70;;;12.50;99.90;;;;;;4886202;29;20052;-59
2022/10/29 05:19:50;;;;;;;38.63;6.55;;;12.50;99.90;;;;;;4891499;29;21441;-59
2022/10/29 05:22:15;;;;;;;63.03;8.20;;;12.60;99.90;;;;;;4920646;28;20063;-60
2022/10/29 05:24:42;;;;;;;101.22;8.18;;;12.50;99.90;;;;;;4894452;29;20055;-61
2022/10/29 05:27:07;;;;;;;38.75;7.70;;;12.60;99.90;;;;;;4894110;29;20044;-59
2022/10/29 05:29:33;;;;;;;82.05;7.90;;;12.60;99.90;;;;;;4895222;29;20521;-59
2022/10/29 05:31:59;;;;;;;63.30;7.13;;;12.60;99.90;;;;;;4928548;28;20044;-61
2022/10/29 05:34:25;;;;;;;23.15;6.50;;;12.60;99.90;;;;;;4891477;29;20048;-60
2022/10/29 05:36:51;;;;;;;48.47;7.95;;;12.60;99.90;;;;;;4887443;29;20055;-61
2022/10/29 05:39:17;;;;;;;23.77;6.93;;;12.60;99.90;;;;;;4892632;29;20138;-60
2022/10/29 05:41:42;;;;;;;29.88;6.43;;;12.60;99.90;;;;;;4893386;29;20105;-61
2022/10/29 05:44:08;;;;;;;30.83;7.15;;;12.60;99.90;;;;;;4890908;29;20106;-60
2022/10/29 05:46:34;;;;;;;35.17;7.18;;;12.60;99.90;;;;;;4880726;29;20502;-60
2022/10/29 05:49:00;;;;;;;41.92;8.10;;;12.60;99.90;;;;;;4886975;29;20691;-60
2022/10/29 05:51:25;;;;;;;20.92;6.50;;;12.60;99.90;;;;;;4890415;29;20060;-59
2022/10/29 05:53:51;;;;;;;28.55;7.68;;;12.60;99.90;;;;;;4892219;29;20076;-59
2022/10/29 05:56:17;;;;;;;28.75;7.22;;;12.60;99.90;;;;;;4895573;29;20048;-60
2022/10/29 05:58:43;;;;;;;19.60;7.30;;;12.60;99.90;;;;;;4878241;29;20064;-60
2022/10/29 06:01:10;;;;;;;19.80;6.68;;;12.60;99.90;;;;;;4907203;29;20116;-59
2022/10/29 06:03:37;;;;;;;29.38;7.10;;;12.60;99.90;;;;;;4891621;29;20507;-58
2022/10/29 06:06:03;;;;;;;25.13;7.50;;;12.60;99.90;;;;;;4888343;29;21120;-58
2022/10/29 06:08:28;;;;;;;17.42;6.85;;;12.60;99.90;;;;;;4887763;29;20062;-59
2022/10/29 06:10:54;;;;;;;64.47;8.82;;;12.60;99.90;;;;;;4891784;29;20127;-58
2022/10/29 06:13:21;;;;;;;16.55;6.70;;;12.60;99.90;;;;;;4886479;29;20055;-58
2022/10/29 06:15:48;;;;;;;36.65;8.30;;;12.60;99.90;;;;;;4890506;29;20048;-58
2022/10/29 06:18:15;;;;;;;49.95;8.60;;;12.60;99.90;;;;;;4892382;29;20392;-58
2022/10/29 06:20:42;;;;;;;38.53;7.65;;;12.60;99.90;;;;;;4895328;29;20491;-59
2022/10/29 06:23:09;;;;;;;45.47;7.20;;;12.60;99.90;;;;;;4894326;29;20067;-58
2022/10/29 06:25:35;;;;;;;25.63;7.18;;;12.60;99.90;;;;;;4895893;29;20063;-58
2022/10/29 06:28:04;;;;;;;49.92;8.55;;;12.60;99.90;;;;;;4892824;29;21205;-58
2022/10/29 06:30:31;;;;;;;30.52;7.45;;;12.60;99.90;;;;;;4896247;29;20504;-58
2022/10/29 06:32:57;;;;;;;37.20;7.40;;;12.60;99.90;;;;;;4896156;29;20087;-59
2022/10/29 06:35:23;;;;;;;32.58;7.30;;;12.60;99.90;;;;;;4894470;29;20939;-58
2022/10/29 06:37:49;;;;;;;45.30;7.78;;;12.60;99.90;;;;;;4898161;29;20056;-58
2022/10/29 06:40:15;;;;;;;27.90;7.57;;;12.60;99.90;;;;;;4897171;29;20055;-58
2022/10/29 06:42:42;;;;;;;39.65;7.70;;;12.60;99.90;;;;;;4899473;29;20055;-59
2022/10/29 06:45:08;;;;;;;50.25;7.88;;;12.60;99.90;;;;;;4896550;29;20048;-59
2022/10/29 06:47:38;;;;;;;41.45;7.47;;;12.60;99.90;;;;;;4899619;29;20083;-58
2022/10/29 06:50:05;;;;;;;56.90;8.02;;;12.70;99.90;;;;;;4896803;29;20528;-59
2022/10/29 06:52:30;;;;;;;28.55;7.60;;;12.60;99.90;;;;;;4899973;29;20095;-58
2022/10/29 06:54:56;;;;;;;39.63;7.93;;;12.60;99.90;;;;;;4899429;29;20119;-58
2022/10/29 06:57:23;;;;;;;40.17;8.07;;;12.60;99.90;;;;;;4894968;29;20048;-58
2022/10/29 06:59:49;;;;;;;40.65;8.95;;;12.70;99.90;;;;;;4899291;29;20106;-58
2022/10/29 07:02:17;;;;;;;59.22;8.90;;;12.70;99.90;;;;;;4897737;29;20048;-58
2022/10/29 07:04:43;;;;;;;35.08;7.90;;;12.70;99.90;;;;;;4900197;29;20050;-59
2022/10/29 07:07:09;;;;;;;19.50;7.72;;;12.70;99.90;;;;;;4897093;29;20043;-58
2022/10/29 07:09:34;;;;;;;36.22;8.45;;;12.70;99.90;;;;;;4898845;29;20060;-58
2022/10/29 07:12:00;;;;;;;35.35;7.90;;;12.80;99.90;;;;;;4896208;29;20051;-59
2022/10/29 07:14:26;;;;;;;38.72;9.25;;;12.70;99.90;;;;;;4899082;29;20048;-58
2022/10/29 07:16:52;;;;;;;33.03;8.82;;;12.80;99.90;;;;;;4898192;29;20103;-58
2022/10/29 07:19:18;;;;;;;49.65;9.43;;;12.80;99.90;;;;;;4898599;29;20049;-59
2022/10/29 07:21:44;;;;;;;38.70;9.30;;;12.80;99.90;;;;;;4899831;29;20049;-58
2022/10/29 07:24:09;;;;;;;24.73;8.45;;;12.80;99.90;;;;;;4899077;29;20127;-58
2022/10/29 07:26:36;;;;;;;39.25;10.27;;;12.90;99.90;;;;;;4901375;29;20392;-59
2022/10/29 07:29:02;;;;;;;51.55;10.02;;;12.90;99.90;;;;;;4897426;29;20056;-59
2022/10/29 07:31:29;;;;;;;29.50;9.90;;;12.90;99.90;;;;;;4897322;29;20064;-58
2022/10/29 07:33:56;;;;;;;34.78;9.35;;;12.90;99.90;;;;;;4898726;29;20146;-58
2022/10/29 07:36:22;;;;;;;49.90;10.10;;;13.00;99.90;;;;;;4897416;29;20080;-58
2022/10/29 07:38:48;;;;;;;50.08;9.80;;;13.00;99.90;;;;;;4896173;29;20044;-59
2022/10/29 07:41:14;;;;;;;79.85;11.10;;;13.00;99.90;;;;;;4928019;28;20056;-58
2022/10/29 07:43:40;;;;;;;45.97;11.50;;;13.00;99.90;;;;;;4899087;29;20057;-58
2022/10/29 07:46:06;;;;;;;86.40;11.70;;;13.10;99.90;;;;;;4897468;29;20067;-59
2022/10/29 07:48:32;;;;;;;47.75;10.77;;;13.10;99.90;;;;;;4899709;29;20044;-58
2022/10/29 07:50:59;;;;;;;28.55;10.65;;;13.20;99.90;;;;;;4894555;29;20045;-58
2022/10/29 07:53:25;;;;;;;49.22;11.80;;;13.20;99.90;;;;;;4896841;29;20047;-58
2022/10/29 07:55:52;;;;;;;37.40;11.43;;;13.30;99.90;;;;;;4896027;29;20126;-58
2022/10/29 07:58:18;;;;;;;69.18;13.38;;;13.30;99.90;;;;;;4897749;29;20049;-57
2022/10/29 08:00:44;;;;;;;47.78;11.55;;;13.40;99.90;;;;;;4899410;29;20048;-58
2022/10/29 08:03:11;;;;;;;42.90;11.85;;;13.40;99.90;;;;;;4898691;29;20053;-59
2022/10/29 08:05:37;;;;;;;51.47;11.82;;;13.50;99.90;;;;;;4893333;29;20057;-58
2022/10/29 08:08:04;;;;;;;49.50;11.30;;;13.50;99.90;;;;;;4897934;29;20064;-58
2022/10/29 08:10:32;;;;;;;38.95;11.68;;;13.50;99.90;;;;;;4898014;29;20056;-59
2022/10/29 08:13:03;;;;;;;47.03;12.70;;;13.60;99.90;;;;;;4899027;29;20040;-58
2022/10/29 08:15:31;;;;;;;37.65;12.07;;;13.60;99.90;;;;;;4894910;29;20044;-58
2022/10/29 08:17:57;;;;;;;47.97;14.00;;;13.60;99.90;;;;;;4896594;29;20068;-58
2022/10/29 08:20:25;;;;;;;41.75;13.20;;;13.70;99.90;;;;;;4898334;29;20194;-58
2022/10/29 08:22:51;;;;;;;61.88;15.43;;;13.70;99.90;;;;;;4897039;29;20108;-58
2022/10/29 08:25:17;;;;;;;39.33;13.55;;;13.80;99.90;;;;;;4897333;29;20060;-59
2022/10/29 08:27:43;;;;;;;44.75;14.15;;;13.80;99.90;;;;;;4898313;29;20039;-59
2022/10/29 08:30:12;;;;;;;42.13;14.30;;;13.90;99.90;;;;;;4929024;28;20083;-58
2022/10/29 08:32:47;;;;;;;50.60;15.93;;;13.90;99.90;;;;;;4928075;29;20045;-59
2022/10/29 08:35:13;;;;;;;53.95;17.38;;;13.90;99.90;;;;;;4895852;29;20059;-58
2022/10/29 08:37:45;;;;;;;55.47;18.02;;;14.00;99.90;;;;;;4896813;29;20055;-58
2022/10/29 08:40:26;;;;;;;55.35;17.85;;;14.00;99.90;;;;;;4897737;29;20056;-59
2022/10/29 08:42:57;;;;;;;50.83;19.52;;;14.00;99.90;;;;;;4897709;29;20040;-58
2022/10/29 08:45:33;;;;;;;61.53;20.67;;;14.10;99.90;;;;;;4897603;29;20051;-59
2022/10/29 08:48:27;;;;;;;60.50;22.35;;;14.10;99.90;;;;;;4901836;29;20410;-58
2022/10/29 08:51:03;;;;;;;71.93;22.35;;;14.10;99.90;;;;;;4895913;29;20045;-59
2022/10/29 08:53:53;;;;;;;65.10;22.90;;;14.10;99.90;;;;;;4895812;29;20057;-58
2022/10/29 08:56:33;;;;;;;64.78;23.77;;;14.20;99.90;;;;;;4892108;29;20044;-58
2022/10/29 08:59:05;;;;;;;59.75;25.17;;;14.20;99.90;;;;;;4896718;29;20040;-59
2022/10/29 09:01:31;;;;;;;64.33;23.53;;;14.20;99.90;;;;;;4906756;29;20048;-59
2022/10/29 09:03:57;;;;;;;69.20;24.48;;;14.30;99.90;;;;;;4896635;29;20032;-59
2022/10/29 09:06:41;;;;;;;60.63;24.42;;;14.30;99.90;;;;;;4898043;29;20044;-58
2022/10/29 09:09:26;;;;;;;67.10;25.05;;;14.30;99.90;;;;;;4894964;29;20169;-59
2022/10/29 09:12:16;;;;;;;67.72;25.70;;;14.30;99.90;;;;;;4895810;29;20044;-58
2022/10/29 09:15:00;;;;;;;63.95;25.17;;;14.30;99.90;;;;;;4894083;29;20076;-58
2022/10/29 09:17:42;;;;;;;60.42;25.40;;;14.30;99.90;;;;;;4892356;29;20601;-59
2022/10/29 09:20:24;;;;;;;64.25;25.23;;;14.30;99.90;;;;;;4893483;29;20059;-58
2022/10/29 09:23:08;;;;;;;61.85;24.60;;;14.30;99.90;;;;;;4909838;29;20522;-58
2022/10/29 09:26:10;;;;;;;53.67;25.77;;;14.40;99.90;;;;;;4895504;29;20135;-58
2022/10/29 09:28:44;;;;;;;55.42;25.38;;;14.40;99.90;;;;;;4897033;29;20056;-58
2022/10/29 09:31:13;;;;;;;59.05;25.67;;;14.40;99.90;;;;;;4927091;28;20131;-59
2022/10/29 09:33:40;;;;;;;65.88;27.35;;;14.50;99.90;;;;;;4897406;29;20041;-58
2022/10/29 09:36:18;;;;;;;61.88;26.42;;;14.50;99.90;;;;;;4899781;29;20054;-58
2022/10/29 09:39:12;;;;;;;62.60;26.77;;;14.60;99.90;;;;;;4893988;29;20044;-58
2022/10/29 09:41:39;;;;;;;62.72;27.58;;;14.60;99.90;;;;;;4895371;29;20056;-59
2022/10/29 09:44:05;;;;;;;59.33;26.35;;;14.60;99.90;;;;;;4894591;29;20719;-58
2022/10/29 09:47:00;;;;;;;62.33;26.92;;;14.60;99.90;;;;;;4894781;29;20064;-59
2022/10/29 09:49:37;;;;;;;65.13;26.33;;;14.70;99.90;;;;;;4892891;29;20048;-59
2022/10/29 09:52:05;;;;;;;59.42;26.27;;;14.70;99.90;;;;;;4895117;29;20055;-58
2022/10/29 09:54:32;;;;;;;57.60;26.02;;;14.70;99.90;;;;;;4888092;29;20131;-55
2022/10/29 09:57:01;;;;;;;58.90;25.67;;;14.70;99.90;;;;;;4893167;29;20050;-56
2022/10/29 09:59:39;;;;;;;63.50;27.00;;;14.70;99.90;;;;;;4897226;29;20049;-57
2022/10/29 10:02:31;;;;;;;50.63;25.45;;;14.80;99.90;;;;;;4894747;29;20158;-57
2022/10/29 10:05:04;;;;;;;52.83;24.33;;;14.80;99.90;;;;;;4894021;29;20444;-57
2022/10/29 10:07:30;;;;;;;54.90;24.80;;;14.80;99.90;;;;;;4893800;29;20551;-56
2022/10/29 10:10:01;;;;;;;55.08;25.02;;;14.90;99.90;;;;;;4891339;29;20143;-57
2022/10/29 10:12:36;;;;;;;51.60;22.75;;;14.90;99.90;;;;;;4894569;29;20120;-57
2022/10/29 10:15:29;;;;;;;55.10;23.70;;;15.00;99.90;;;;;;4894239;29;20480;-55
2022/10/29 10:17:56;;;;;;;47.20;21.77;;;15.10;99.90;;;;;;4894733;29;20048;-54
2022/10/29 10:20:30;;;;;;;51.35;22.63;;;15.20;99.90;;;;;;4890378;29;20056;-56
2022/10/29 10:22:56;;;;;;;43.00;21.25;;;15.20;99.90;;;;;;4892119;29;20116;-56
2022/10/29 10:25:35;;;;;;;44.10;20.80;;;15.20;99.90;;;;;;4894124;29;20040;-55
2022/10/29 10:28:28;;;;;;;44.28;19.73;;;15.30;99.90;;;;;;4910400;29;20460;-57
2022/10/29 10:31:03;;;;;;;40.35;19.58;;;15.30;99.90;;;;;;4895590;29;20040;-55
2022/10/29 10:33:31;;;;;;;40.38;18.52;;;15.40;99.90;;;;;;4895596;29;20053;-54
2022/10/29 10:36:03;;;;;;;42.33;19.73;;;15.50;99.90;;;;;;4926141;28;21603;-57
2022/10/29 10:38:40;;;;;;;40.15;18.75;;;15.50;99.90;;;;;;4896441;29;20052;-57
2022/10/29 10:41:09;;;;;;;39.58;19.38;;;15.70;99.90;;;;;;4896760;29;20056;-57
2022/10/29 10:43:35;;;;;;;36.30;17.75;;;15.70;99.90;;;;;;4896417;29;20048;-57
2022/10/29 10:46:10;;;;;;;36.83;17.75;;;15.80;99.90;;;;;;4890565;29;20492;-55
2022/10/29 10:48:36;;;;;;;32.22;15.60;;;15.80;99.90;;;;;;4895409;29;20384;-55
2022/10/29 10:51:20;;;;;;;34.83;16.77;;;15.90;99.90;;;;;;4859710;29;20052;-56
2022/10/29 10:53:46;;;;;;;34.15;16.20;;;15.90;99.90;;;;;;4897037;29;20103;-55
2022/10/29 10:56:18;;;;;;;32.92;15.75;;;16.00;99.90;;;;;;4924232;28;20094;-57
2022/10/29 10:59:00;;;;;;;34.13;15.73;;;16.00;99.90;;;;;;4893055;29;20056;-57
2022/10/29 11:01:36;;;;;;;35.55;15.55;;;16.10;99.90;;;;;;4887086;29;20063;-57
2022/10/29 11:04:15;;;;;;;34.05;15.02;;;16.10;99.90;;;;;;4895590;29;20648;-56
2022/10/29 11:06:47;;;;;;;36.28;14.93;;;16.20;99.90;;;;;;4892767;29;20112;-57
2022/10/29 11:09:32;;;;;;;33.50;15.40;;;16.30;99.90;;;;;;4892748;29;20056;-56
2022/10/29 11:12:10;;;;;;;29.48;14.57;;;16.30;99.90;;;;;;4891225;29;20060;-58
2022/10/29 11:14:50;;;;;;;29.70;14.07;;;16.40;99.90;;;;;;4909138;29;20958;-55
2022/10/29 11:17:26;;;;;;;29.13;13.57;;;16.40;99.90;;;;;;4890608;29;20053;-56
2022/10/29 11:19:56;;;;;;;32.40;13.10;;;16.50;99.90;;;;;;4894064;29;20083;-55
2022/10/29 11:22:27;;;;;;;26.90;13.45;;;16.60;99.90;;;;;;4899530;29;20063;-56
2022/10/29 11:25:13;;;;;;;27.67;13.32;;;16.60;99.90;;;;;;4885439;29;20569;-55
2022/10/29 11:27:59;;;;;;;26.98;12.98;;;16.70;99.90;;;;;;4891806;29;20111;-57
2022/10/29 11:30:30;;;;;;;29.33;12.52;;;16.70;99.90;;;;;;4898214;29;20143;-57
2022/10/29 11:33:10;;;;;;;30.05;12.85;;;16.80;99.90;;;;;;4897506;29;20075;-56
2022/10/29 11:35:44;;;;;;;29.33;12.05;;;16.90;99.90;;;;;;4909209;29;20135;-56
2022/10/29 11:38:22;;;;;;;21.25;11.05;;;17.00;99.90;;;;;;4897939;29;20048;-57
2022/10/29 11:41:27;;;;;;;26.42;10.85;;;17.00;99.90;;;;;;4897591;29;20048;-56
2022/10/29 11:43:53;;;;;;;23.13;10.55;;;17.10;99.90;;;;;;4853906;29;20131;-56
2022/10/29 11:46:22;;;;;;;26.52;10.35;;;17.20;99.90;;;;;;4866257;29;20076;-57
2022/10/29 11:49:10;;;;;;;25.17;10.40;;;17.20;99.90;;;;;;4894803;29;20055;-57
2022/10/29 11:51:42;;;;;;;21.92;10.30;;;17.20;99.90;;;;;;4894459;29;20059;-57
2022/10/29 11:54:37;;;;;;;22.13;10.77;;;17.30;99.90;;;;;;4896000;29;20719;-56
2022/10/29 11:57:15;;;;;;;27.45;10.18;;;17.40;99.90;;;;;;4896800;28;20052;-57
2022/10/29 12:00:02;;;;;;;25.80;9.50;;;17.40;99.90;;;;;;4895716;29;20496;-57
2022/10/29 12:02:42;;;;;;;22.50;10.05;;;17.60;99.90;;;;;;4887260;29;20050;-57
2022/10/29 12:05:19;;;;;;;21.50;9.05;;;17.70;99.90;;;;;;4893250;29;20055;-56
2022/10/29 12:08:04;;;;;;;22.75;9.85;;;17.80;99.90;;;;;;4900094;29;20071;-57
2022/10/29 12:11:04;;;;;;;18.02;9.88;;;17.80;99.90;;;;;;4898011;29;20060;-54
2022/10/29 12:13:29;;;;;;;24.40;9.65;;;17.80;99.90;;;;;;4924349;28;20055;-56
2022/10/29 12:16:19;;;;;;;17.98;9.13;;;17.80;99.90;;;;;;4891161;29;20051;-57
2022/10/29 12:18:54;;;;;;;22.10;9.45;;;17.80;99.90;;;;;;4877997;29;20060;-57
2022/10/29 12:21:35;;;;;;;20.83;9.93;;;17.80;99.90;;;;;;4896503;29;20052;-57
2022/10/29 12:24:21;;;;;;;25.08;9.50;;;17.80;99.90;;;;;;4896587;29;20087;-57
2022/10/29 12:27:07;;;;;;;24.38;10.13;;;17.80;99.90;;;;;;4894538;29;20096;-57
2022/10/29 12:29:42;;;;;;;24.60;10.07;;;17.90;99.90;;;;;;4893640;29;20079;-57
2022/10/29 12:32:30;;;;;;;22.55;10.23;;;17.90;99.90;;;;;;4892311;29;20051;-57
2022/10/29 12:35:32;;;;;;;23.65;10.07;;;17.90;99.90;;;;;;4894150;29;20041;-57
2022/10/29 12:38:12;;;;;;;24.23;9.40;;;18.00;99.90;;;;;;4894350;29;20048;-56
2022/10/29 12:40:42;;;;;;;17.13;8.85;;;18.00;99.90;;;;;;4890980;29;20440;-56
2022/10/29 12:43:22;;;;;;;20.60;9.35;;;18.00;99.90;;;;;;4920357;28;20127;-57
2022/10/29 12:46:15;;;;;;;22.48;9.95;;;18.10;99.90;;;;;;4903014;29;20051;-56
2022/10/29 12:49:08;;;;;;;17.75;8.43;;;18.20;99.90;;;;;;4897998;29;20487;-56
2022/10/29 12:52:02;;;;;;;25.80;8.63;;;18.40;99.90;;;;;;4897645;29;20100;-56
2022/10/29 12:54:31;;;;;;;18.63;8.68;;;18.50;99.90;;;;;;4900011;29;20495;-56